createdAt,value
2018-08-30T00:00:45.008Z,19.01
2018-08-30T00:01:45.020Z,19.13
2018-08-30T00:02:44.834Z,19.10
2018-08-30T00:03:44.760Z,19.30
2018-08-30T00:04:44.654Z,19.31
2018-08-30T00:05:44.565Z,19.39
2018-08-30T00:06:44.477Z,19.32
2018-08-30T00:07:44.392Z,19.40
2018-08-30T00:08:44.429Z,19.30
2018-08-30T00:09:44.212Z,19.30
2018-08-30T00:10:44.135Z,19.40
2018-08-30T00:11:44.035Z,19.39
2018-08-30T00:12:43.948Z,19.50
2018-08-30T00:13:43.877Z,19.64
2018-08-30T00:14:43.767Z,19.62
2018-08-30T00:15:43.797Z,19.70
2018-08-30T00:16:43.593Z,19.75
2018-08-30T00:17:43.503Z,19.71
2018-08-30T00:18:43.427Z,19.85
2018-08-30T00:19:43.324Z,19.85
2018-08-30T00:20:43.239Z,19.82
2018-08-30T00:21:43.150Z,19.78
2018-08-30T00:22:43.162Z,19.75
2018-08-30T00:23:42.987Z,19.80
2018-08-30T00:24:42.886Z,19.76
2018-08-30T00:25:42.793Z,19.76
2018-08-30T00:26:42.731Z,19.70
2018-08-30T00:27:42.622Z,19.75
2018-08-30T00:28:42.542Z,19.78
2018-08-30T00:29:42.540Z,19.75
2018-08-30T00:30:42.349Z,19.64
2018-08-30T00:31:42.264Z,19.55
2018-08-30T00:32:42.173Z,19.58
2018-08-30T00:33:42.099Z,19.50
2018-08-30T00:34:41.996Z,19.45
2018-08-30T00:35:41.909Z,19.31
2018-08-30T00:36:41.819Z,19.30
2018-08-30T00:37:41.729Z,19.34
2018-08-30T00:38:41.661Z,19.24
2018-08-30T00:39:41.555Z,19.09
2018-08-30T00:40:41.467Z,18.94
2018-08-30T00:41:41.377Z,18.87
2018-08-30T00:42:41.292Z,18.83
2018-08-30T00:43:41.312Z,18.82
2018-08-30T00:44:41.112Z,18.79
2018-08-30T00:45:41.021Z,18.71
2018-08-30T00:46:40.934Z,18.56
2018-08-30T00:47:40.855Z,18.36
2018-08-30T00:48:40.768Z,18.32
2018-08-30T00:49:40.791Z,18.19
2018-08-30T00:50:40.576Z,18.05
2018-08-30T00:51:40.490Z,17.83
2018-08-30T00:52:40.396Z,17.80
2018-08-30T00:53:40.323Z,17.74
2018-08-30T00:54:40.217Z,17.66
2018-08-30T00:55:40.131Z,17.73
2018-08-30T00:56:40.043Z,17.70
2018-08-30T00:57:39.952Z,17.68
2018-08-30T00:58:39.879Z,17.62
2018-08-30T00:59:39.776Z,17.57
2018-08-30T01:00:39.685Z,17.57
2018-08-30T01:01:39.596Z,17.58
2018-08-30T01:02:39.507Z,17.54
2018-08-30T01:03:39.432Z,17.55
2018-08-30T01:04:39.327Z,17.46
2018-08-30T01:05:39.240Z,17.39
2018-08-30T01:06:39.146Z,17.43
2018-08-30T01:07:39.059Z,17.43
2018-08-30T01:08:38.995Z,17.43
2018-08-30T01:09:38.876Z,17.27
2018-08-30T01:10:38.790Z,17.33
2018-08-30T01:11:38.698Z,17.20
2018-08-30T01:12:38.618Z,17.32
2018-08-30T01:13:38.536Z,17.18
2018-08-30T01:14:38.429Z,17.18
2018-08-30T01:15:38.341Z,16.99
2018-08-30T01:16:38.252Z,17.03
2018-08-30T01:17:38.161Z,16.84
2018-08-30T01:18:38.087Z,16.82
2018-08-30T01:19:37.977Z,16.72
2018-08-30T01:20:37.888Z,16.57
2018-08-30T01:21:37.796Z,16.42
2018-08-30T01:22:37.710Z,16.17
2018-08-30T01:23:37.637Z,16.17
2018-08-30T01:24:37.531Z,16.17
2018-08-30T01:25:37.436Z,16.06
2018-08-30T01:26:37.347Z,15.91
2018-08-30T01:27:37.256Z,15.85
2018-08-30T01:28:37.182Z,15.62
2018-08-30T01:29:37.074Z,15.64
2018-08-30T01:30:36.990Z,15.41
2018-08-30T01:31:36.911Z,15.37
2018-08-30T01:32:36.804Z,15.27
2018-08-30T01:33:36.731Z,15.20
2018-08-30T01:34:36.622Z,15.19
2018-08-30T01:35:36.528Z,15.20
2018-08-30T01:36:36.440Z,15.09
2018-08-30T01:37:36.347Z,15.04
2018-08-30T01:38:36.260Z,15.01
2018-08-30T01:39:36.180Z,15.01
2018-08-30T01:40:36.075Z,15.12
2018-08-30T01:41:36.013Z,15.16
2018-08-30T01:42:35.891Z,15.11
2018-08-30T01:43:35.804Z,15.04
2018-08-30T01:44:35.726Z,15.19
2018-08-30T01:45:35.615Z,15.11
2018-08-30T01:46:35.527Z,15.16
2018-08-30T01:47:35.433Z,15.18
2018-08-30T01:48:35.342Z,15.33
2018-08-30T01:49:35.269Z,15.35
2018-08-30T01:50:35.156Z,15.33
2018-08-30T01:51:35.067Z,15.31
2018-08-30T01:52:34.972Z,15.38
2018-08-30T01:53:34.883Z,15.44
2018-08-30T01:54:34.806Z,15.43
2018-08-30T01:55:34.698Z,15.46
2018-08-30T01:56:34.609Z,15.31
2018-08-30T01:57:34.516Z,15.59
2018-08-30T01:58:34.423Z,15.52
2018-08-30T01:59:34.350Z,15.60
2018-08-30T02:00:34.237Z,15.68
2018-08-30T02:01:34.151Z,15.70
2018-08-30T02:02:34.055Z,15.77
2018-08-30T02:03:33.962Z,15.76
2018-08-30T02:04:33.886Z,15.80
2018-08-30T02:05:33.777Z,15.84
2018-08-30T02:06:33.686Z,15.88
2018-08-30T02:07:33.594Z,15.91
2018-08-30T02:08:33.504Z,15.86
2018-08-30T02:09:33.428Z,15.89
2018-08-30T02:10:33.320Z,15.93
2018-08-30T02:11:33.227Z,15.93
2018-08-30T02:12:33.141Z,15.93
2018-08-30T02:13:33.042Z,15.88
2018-08-30T02:14:32.967Z,15.91
2018-08-30T02:15:32.858Z,15.93
2018-08-30T02:16:32.772Z,15.93
2018-08-30T02:17:32.675Z,15.92
2018-08-30T02:18:32.588Z,15.99
2018-08-30T02:19:32.510Z,16.04
2018-08-30T02:20:32.405Z,16.10
2018-08-30T02:21:32.310Z,16.06
2018-08-30T02:22:32.216Z,16.16
2018-08-30T02:23:32.124Z,16.17
2018-08-30T02:24:32.060Z,16.23
2018-08-30T02:25:31.940Z,16.25
2018-08-30T02:26:31.852Z,16.25
2018-08-30T02:27:31.759Z,16.23
2018-08-30T02:28:31.959Z,16.27
2018-08-30T02:29:31.592Z,16.25
2018-08-30T02:30:31.485Z,16.32
2018-08-30T02:31:31.394Z,16.32
2018-08-30T02:32:31.300Z,16.32
2018-08-30T02:33:31.221Z,16.36
2018-08-30T02:34:31.136Z,16.33
2018-08-30T02:35:31.133Z,16.30
2018-08-30T02:36:30.937Z,16.33
2018-08-30T02:37:30.846Z,16.32
2018-08-30T02:38:30.751Z,16.33
2018-08-30T02:39:30.680Z,16.33
2018-08-30T02:40:30.566Z,16.26
2018-08-30T02:41:30.478Z,16.29
2018-08-30T02:42:30.501Z,16.36
2018-08-30T02:43:30.295Z,16.33
2018-08-30T02:44:30.221Z,16.33
2018-08-30T02:45:30.111Z,16.36
2018-08-30T02:46:30.020Z,16.34
2018-08-30T02:47:29.929Z,16.29
2018-08-30T02:48:29.836Z,16.32
2018-08-30T02:49:29.866Z,16.36
2018-08-30T02:50:29.655Z,16.32
2018-08-30T02:51:29.561Z,16.30
2018-08-30T02:52:29.472Z,16.37
2018-08-30T02:53:29.384Z,16.45
2018-08-30T02:54:29.301Z,16.44
2018-08-30T02:55:29.199Z,16.40
2018-08-30T02:56:29.204Z,16.52
2018-08-30T02:57:29.022Z,16.42
2018-08-30T02:58:28.924Z,16.45
2018-08-30T02:59:28.849Z,16.42
2018-08-30T03:00:28.739Z,16.33
2018-08-30T03:01:28.648Z,16.36
2018-08-30T03:02:28.558Z,16.30
2018-08-30T03:03:28.574Z,16.37
2018-08-30T03:04:28.393Z,16.32
2018-08-30T03:05:28.281Z,16.32
2018-08-30T03:06:28.191Z,16.42
2018-08-30T03:07:28.104Z,16.45
2018-08-30T03:08:28.010Z,16.42
2018-08-30T03:09:27.931Z,16.47
2018-08-30T03:10:27.924Z,16.47
2018-08-30T03:11:27.732Z,16.47
2018-08-30T03:12:27.642Z,16.52
2018-08-30T03:13:27.551Z,16.57
2018-08-30T03:14:27.465Z,16.50
2018-08-30T03:15:27.384Z,16.48
2018-08-30T03:16:27.282Z,16.54
2018-08-30T03:17:27.285Z,16.52
2018-08-30T03:18:27.094Z,16.48
2018-08-30T03:19:27.026Z,16.51
2018-08-30T03:20:26.915Z,16.51
2018-08-30T03:21:26.823Z,16.51
2018-08-30T03:22:26.732Z,16.51
2018-08-30T03:23:26.636Z,16.47
2018-08-30T03:24:26.680Z,16.48
2018-08-30T03:25:26.456Z,16.45
2018-08-30T03:26:26.365Z,16.48
2018-08-30T03:27:26.275Z,16.52
2018-08-30T03:28:26.184Z,16.50
2018-08-30T03:29:26.093Z,16.52
2018-08-30T03:30:26.233Z,16.55
2018-08-30T03:31:26.019Z,16.51
2018-08-30T03:32:25.818Z,16.51
2018-08-30T03:33:25.731Z,16.59
2018-08-30T03:34:25.636Z,16.67
2018-08-30T03:35:25.561Z,16.75
2018-08-30T03:36:25.458Z,16.72
2018-08-30T03:37:25.364Z,16.70
2018-08-30T03:38:25.269Z,16.69
2018-08-30T03:39:25.186Z,16.84
2018-08-30T03:40:25.109Z,16.75
2018-08-30T03:41:25.002Z,16.87
2018-08-30T03:42:24.905Z,16.87
2018-08-30T03:43:24.816Z,16.82
2018-08-30T03:44:24.726Z,16.87
2018-08-30T03:45:24.650Z,16.88
2018-08-30T03:46:24.549Z,16.95
2018-08-30T03:47:24.451Z,16.92
2018-08-30T03:48:24.362Z,16.87
2018-08-30T03:49:24.271Z,16.92
2018-08-30T03:50:24.196Z,16.88
2018-08-30T03:51:24.090Z,16.87
2018-08-30T03:52:23.999Z,16.91
2018-08-30T03:53:23.905Z,16.88
2018-08-30T03:54:23.817Z,16.95
2018-08-30T03:55:23.744Z,16.90
2018-08-30T03:56:23.632Z,16.91
2018-08-30T03:57:23.544Z,16.87
2018-08-30T03:58:23.455Z,16.87
2018-08-30T03:59:23.360Z,16.91
2018-08-30T04:00:23.293Z,16.98
2018-08-30T04:01:23.184Z,16.92
2018-08-30T04:02:23.089Z,16.95
2018-08-30T04:03:23.001Z,16.92
2018-08-30T04:04:23.041Z,16.95
2018-08-30T04:05:22.835Z,16.98
2018-08-30T04:06:22.727Z,16.99
2018-08-30T04:07:22.638Z,16.92
2018-08-30T04:08:22.546Z,16.90
2018-08-30T04:09:22.458Z,16.85
2018-08-30T04:10:22.385Z,16.92
2018-08-30T04:11:22.281Z,16.98
2018-08-30T04:12:22.183Z,16.99
2018-08-30T04:13:22.155Z,16.95
2018-08-30T04:14:22.002Z,16.92
2018-08-30T04:15:21.930Z,16.98
2018-08-30T04:16:21.824Z,16.92
2018-08-30T04:17:21.727Z,16.98
2018-08-30T04:18:21.641Z,16.99
2018-08-30T04:19:21.550Z,16.87
2018-08-30T04:20:21.474Z,16.91
2018-08-30T04:21:21.369Z,16.87
2018-08-30T04:22:21.276Z,16.87
2018-08-30T04:23:21.187Z,16.85
2018-08-30T04:24:21.095Z,16.91
2018-08-30T04:25:21.022Z,16.85
2018-08-30T04:26:20.912Z,16.87
2018-08-30T04:27:20.824Z,16.88
2018-08-30T04:28:20.734Z,16.92
2018-08-30T04:29:20.643Z,16.91
2018-08-30T04:30:20.571Z,16.92
2018-08-30T04:31:20.475Z,16.92
2018-08-30T04:32:20.373Z,16.95
2018-08-30T04:33:20.279Z,17.02
2018-08-30T04:34:20.192Z,16.99
2018-08-30T04:35:20.120Z,16.95
2018-08-30T04:36:20.016Z,16.90
2018-08-30T04:37:19.930Z,16.90
2018-08-30T04:38:19.830Z,16.87
2018-08-30T04:39:19.745Z,16.95
2018-08-30T04:40:19.665Z,16.99
2018-08-30T04:41:19.556Z,16.95
2018-08-30T04:42:19.503Z,17.02
2018-08-30T04:43:19.380Z,16.95
2018-08-30T04:44:19.287Z,16.98
2018-08-30T04:45:19.215Z,16.96
2018-08-30T04:46:19.121Z,17.02
2018-08-30T04:47:19.014Z,16.96
2018-08-30T04:48:18.925Z,16.99
2018-08-30T04:49:18.835Z,17.03
2018-08-30T04:50:18.827Z,16.99
2018-08-30T04:51:18.653Z,17.02
2018-08-30T04:52:18.564Z,16.95
2018-08-30T04:53:18.469Z,16.99
2018-08-30T04:54:18.484Z,17.02
2018-08-30T04:55:18.309Z,16.92
2018-08-30T04:56:18.222Z,16.98
2018-08-30T04:57:18.115Z,16.90
2018-08-30T04:58:18.019Z,16.90
2018-08-30T04:59:17.931Z,17.06
2018-08-30T05:00:17.861Z,17.07
2018-08-30T05:01:17.751Z,17.09
2018-08-30T05:02:17.661Z,17.05
2018-08-30T05:03:17.570Z,17.05
2018-08-30T05:04:17.481Z,17.10
2018-08-30T05:05:17.404Z,17.10
2018-08-30T05:06:17.298Z,17.09
2018-08-30T05:07:17.208Z,17.05
2018-08-30T05:08:17.217Z,17.06
2018-08-30T05:09:17.034Z,17.06
2018-08-30T05:10:16.944Z,17.06
2018-08-30T05:11:16.865Z,17.05
2018-08-30T05:12:16.758Z,17.07
2018-08-30T05:13:16.665Z,17.05
2018-08-30T05:14:16.578Z,17.09
2018-08-30T05:15:16.589Z,17.09
2018-08-30T05:16:16.419Z,17.06
2018-08-30T05:17:16.305Z,17.07
2018-08-30T05:18:16.228Z,17.00
2018-08-30T05:19:16.127Z,17.00
2018-08-30T05:20:16.042Z,17.03
2018-08-30T05:21:15.962Z,17.10
2018-08-30T05:22:15.956Z,17.15
2018-08-30T05:23:15.765Z,17.15
2018-08-30T05:24:15.673Z,17.12
2018-08-30T05:25:15.587Z,17.09
2018-08-30T05:26:15.513Z,17.09
2018-08-30T05:27:15.403Z,17.14
2018-08-30T05:28:15.313Z,17.14
2018-08-30T05:29:15.335Z,17.17
2018-08-30T05:30:15.136Z,17.18
2018-08-30T05:31:15.062Z,17.24
2018-08-30T05:32:14.952Z,17.18
2018-08-30T05:33:14.863Z,17.20
2018-08-30T05:34:14.776Z,17.24
2018-08-30T05:35:14.682Z,17.17
2018-08-30T05:36:14.711Z,17.20
2018-08-30T05:37:14.503Z,17.30
2018-08-30T05:38:14.414Z,17.17
2018-08-30T05:39:14.339Z,17.24
2018-08-30T05:40:14.234Z,17.18
2018-08-30T05:41:14.155Z,17.17
2018-08-30T05:42:14.050Z,17.24
2018-08-30T05:43:14.061Z,17.18
2018-08-30T05:44:13.869Z,17.20
2018-08-30T05:45:13.778Z,17.18
2018-08-30T05:46:13.710Z,17.22
2018-08-30T05:47:13.603Z,17.15
2018-08-30T05:48:13.513Z,17.14
2018-08-30T05:49:13.419Z,17.02
2018-08-30T05:50:13.445Z,17.03
2018-08-30T05:51:13.257Z,16.95
2018-08-30T05:52:13.149Z,16.91
2018-08-30T05:53:13.071Z,16.91
2018-08-30T05:54:12.976Z,16.88
2018-08-30T05:55:12.882Z,16.92
2018-08-30T05:56:12.807Z,16.88
2018-08-30T05:57:12.803Z,16.85
2018-08-30T05:58:12.611Z,16.87
2018-08-30T05:59:12.517Z,16.84
2018-08-30T06:00:12.427Z,16.87
2018-08-30T06:01:12.354Z,16.87
2018-08-30T06:02:12.244Z,16.91
2018-08-30T06:03:12.157Z,16.92
2018-08-30T06:04:12.167Z,16.90
2018-08-30T06:05:11.976Z,16.99
2018-08-30T06:06:11.899Z,16.90
2018-08-30T06:07:11.801Z,16.98
2018-08-30T06:08:11.718Z,16.91
2018-08-30T06:09:11.615Z,16.90
2018-08-30T06:10:11.534Z,16.95
2018-08-30T06:11:11.559Z,16.90
2018-08-30T06:12:11.341Z,17.02
2018-08-30T06:13:11.391Z,16.95
2018-08-30T06:14:11.161Z,16.90
2018-08-30T06:15:11.070Z,16.91
2018-08-30T06:16:10.996Z,16.90
2018-08-30T06:17:10.894Z,16.85
2018-08-30T06:18:10.902Z,16.91
2018-08-30T06:19:10.709Z,16.87
2018-08-30T06:20:10.617Z,16.81
2018-08-30T06:21:10.543Z,16.82
2018-08-30T06:22:10.438Z,16.85
2018-08-30T06:23:10.349Z,16.81
2018-08-30T06:24:10.258Z,16.72
2018-08-30T06:25:10.167Z,16.60
2018-08-30T06:26:10.101Z,16.67
2018-08-30T06:27:09.985Z,16.60
2018-08-30T06:28:09.893Z,16.59
2018-08-30T06:29:09.821Z,16.57
2018-08-30T06:30:09.713Z,16.50
2018-08-30T06:31:09.638Z,16.48
2018-08-30T06:32:09.531Z,16.50
2018-08-30T06:33:09.439Z,16.48
2018-08-30T06:34:09.389Z,16.52
2018-08-30T06:35:09.274Z,16.44
2018-08-30T06:36:09.186Z,16.34
2018-08-30T06:37:09.078Z,16.40
2018-08-30T06:38:09.000Z,16.37
2018-08-30T06:39:08.895Z,16.29
2018-08-30T06:40:08.808Z,16.30
2018-08-30T06:41:08.730Z,16.27
2018-08-30T06:42:08.626Z,16.30
2018-08-30T06:43:08.534Z,16.32
2018-08-30T06:44:08.446Z,16.32
2018-08-30T06:45:08.354Z,16.33
2018-08-30T06:46:08.282Z,16.29
2018-08-30T06:47:08.170Z,16.36
2018-08-30T06:48:08.080Z,16.34
2018-08-30T06:49:08.028Z,16.37
2018-08-30T06:50:07.900Z,16.32
2018-08-30T06:51:07.823Z,16.42
2018-08-30T06:52:07.715Z,16.47
2018-08-30T06:53:07.625Z,16.42
2018-08-30T06:54:07.536Z,16.50
2018-08-30T06:55:07.447Z,16.48
2018-08-30T06:56:07.373Z,16.50
2018-08-30T06:57:07.264Z,16.50
2018-08-30T06:58:07.174Z,16.55
2018-08-30T06:59:07.082Z,16.57
2018-08-30T07:00:06.993Z,16.51
2018-08-30T07:01:06.905Z,16.55
2018-08-30T07:02:06.828Z,16.54
2018-08-30T07:03:06.721Z,16.54
2018-08-30T07:04:06.672Z,16.63
2018-08-30T07:05:06.539Z,16.82
2018-08-30T07:06:06.449Z,16.72
2018-08-30T07:07:06.376Z,16.66
2018-08-30T07:08:06.300Z,16.72
2018-08-30T07:09:06.177Z,16.81
2018-08-30T07:10:06.085Z,16.82
2018-08-30T07:11:06.000Z,16.84
2018-08-30T07:12:05.921Z,16.92
2018-08-30T07:13:05.813Z,16.98
2018-08-30T07:14:05.723Z,16.96
2018-08-30T07:15:05.671Z,16.92
2018-08-30T07:16:05.557Z,16.92
2018-08-30T07:17:05.468Z,17.05
2018-08-30T07:18:05.360Z,17.06
2018-08-30T07:19:05.271Z,17.05
2018-08-30T07:20:05.182Z,17.18
2018-08-30T07:21:05.152Z,17.00
2018-08-30T07:22:05.018Z,17.09
2018-08-30T07:23:04.911Z,17.09
2018-08-30T07:24:04.874Z,17.06
2018-08-30T07:25:04.730Z,17.07
2018-08-30T07:26:04.640Z,17.06
2018-08-30T07:27:04.569Z,16.96
2018-08-30T07:28:04.465Z,16.98
2018-08-30T07:29:04.371Z,16.88
2018-08-30T07:30:04.283Z,16.92
2018-08-30T07:31:04.189Z,16.96
2018-08-30T07:32:04.119Z,16.90
2018-08-30T07:33:04.007Z,16.87
2018-08-30T07:34:03.921Z,16.85
2018-08-30T07:35:03.939Z,16.70
2018-08-30T07:36:03.740Z,16.72
2018-08-30T07:37:03.667Z,16.66
2018-08-30T07:38:03.565Z,16.69
2018-08-30T07:39:03.470Z,16.60
2018-08-30T07:40:03.382Z,16.55
2018-08-30T07:41:03.390Z,16.51
2018-08-30T07:42:03.214Z,16.52
2018-08-30T07:43:03.109Z,16.48
2018-08-30T07:44:03.085Z,16.51
2018-08-30T07:45:02.926Z,16.44
2018-08-30T07:46:02.836Z,16.45
2018-08-30T07:47:02.761Z,16.33
2018-08-30T07:48:02.656Z,16.47
2018-08-30T07:49:02.565Z,16.33
2018-08-30T07:50:02.484Z,16.30
2018-08-30T07:51:02.442Z,16.32
2018-08-30T07:52:02.327Z,16.37
2018-08-30T07:53:02.203Z,16.27
2018-08-30T07:54:02.116Z,16.23
2018-08-30T07:55:02.139Z,16.23
2018-08-30T07:56:01.934Z,16.16
2018-08-30T07:57:01.855Z,16.17
2018-08-30T07:58:01.752Z,16.16
2018-08-30T07:59:01.662Z,16.13
2018-08-30T08:00:01.645Z,16.22
2018-08-30T08:01:01.483Z,16.14
2018-08-30T08:02:01.508Z,16.11
2018-08-30T08:03:01.297Z,16.17
2018-08-30T08:04:01.210Z,16.18
2018-08-30T08:05:01.114Z,16.22
2018-08-30T08:06:01.092Z,16.14
2018-08-30T08:07:00.968Z,16.08
2018-08-30T08:08:00.845Z,16.11
2018-08-30T08:09:00.853Z,16.07
2018-08-30T08:10:00.662Z,16.03
2018-08-30T08:11:00.574Z,16.03
2018-08-30T08:12:00.562Z,15.99
2018-08-30T08:13:00.390Z,16.01
2018-08-30T08:14:00.301Z,15.88
2018-08-30T08:15:00.231Z,16.08
2018-08-30T08:16:00.220Z,16.06
2018-08-30T08:17:00.044Z,15.99
2018-08-30T08:17:59.935Z,16.11
2018-08-30T08:18:59.864Z,16.06
2018-08-30T08:19:59.759Z,16.16
2018-08-30T08:20:59.665Z,16.22
2018-08-30T08:21:59.593Z,16.32
2018-08-30T08:22:59.481Z,16.50
2018-08-30T08:23:59.494Z,16.50
2018-08-30T08:24:59.301Z,16.50
2018-08-30T08:25:59.214Z,16.57
2018-08-30T08:26:59.137Z,16.55
2018-08-30T08:27:59.033Z,16.66
2018-08-30T08:28:58.941Z,16.67
2018-08-30T08:29:58.850Z,16.66
2018-08-30T08:30:58.860Z,16.55
2018-08-30T08:31:58.685Z,16.50
2018-08-30T08:32:58.578Z,16.54
2018-08-30T08:33:58.487Z,16.54
2018-08-30T08:34:58.398Z,16.48
2018-08-30T08:35:58.306Z,16.42
2018-08-30T08:36:58.235Z,16.34
2018-08-30T08:37:58.231Z,16.33
2018-08-30T08:38:58.036Z,16.30
2018-08-30T08:39:57.950Z,16.27
2018-08-30T08:40:57.860Z,16.27
2018-08-30T08:41:57.783Z,16.22
2018-08-30T08:42:57.675Z,16.16
2018-08-30T08:43:57.584Z,16.26
2018-08-30T08:44:57.592Z,16.29
2018-08-30T08:45:57.403Z,16.23
2018-08-30T08:46:57.337Z,16.13
2018-08-30T08:47:57.242Z,16.14
2018-08-30T08:48:57.133Z,16.07
2018-08-30T08:49:57.044Z,16.06
2018-08-30T08:50:56.950Z,16.13
2018-08-30T08:51:56.969Z,16.27
2018-08-30T08:52:56.785Z,16.23
2018-08-30T08:53:56.679Z,16.29
2018-08-30T08:54:56.590Z,16.32
2018-08-30T08:55:56.500Z,16.50
2018-08-30T08:56:56.422Z,16.47
2018-08-30T08:57:56.337Z,16.50
2018-08-30T08:58:56.407Z,16.59
2018-08-30T08:59:56.141Z,16.65
2018-08-30T09:00:56.044Z,16.77
2018-08-30T09:01:55.955Z,16.82
2018-08-30T09:02:55.900Z,16.84
2018-08-30T09:03:55.778Z,16.90
2018-08-30T09:04:55.688Z,16.95
2018-08-30T09:05:55.594Z,16.95
2018-08-30T09:06:55.540Z,16.81
2018-08-30T09:07:55.457Z,16.84
2018-08-30T09:08:55.326Z,16.82
2018-08-30T09:09:55.232Z,16.91
2018-08-30T09:10:55.146Z,16.92
2018-08-30T09:11:55.054Z,17.07
2018-08-30T09:12:54.985Z,17.18
2018-08-30T09:13:54.876Z,17.24
2018-08-30T09:14:54.787Z,17.42
2018-08-30T09:15:54.697Z,17.42
2018-08-30T09:16:54.603Z,17.47
2018-08-30T09:17:54.544Z,17.49
2018-08-30T09:18:54.425Z,17.42
2018-08-30T09:19:54.476Z,17.42
2018-08-30T09:20:54.246Z,17.46
2018-08-30T09:21:54.157Z,17.42
2018-08-30T09:22:54.146Z,17.43
2018-08-30T09:23:53.976Z,17.53
2018-08-30T09:24:53.883Z,17.53
2018-08-30T09:25:53.796Z,17.46
2018-08-30T09:26:53.779Z,17.39
2018-08-30T09:27:53.635Z,17.43
2018-08-30T09:28:53.527Z,17.33
2018-08-30T09:29:53.436Z,17.21
2018-08-30T09:30:53.393Z,17.09
2018-08-30T09:31:53.260Z,17.02
2018-08-30T09:32:53.191Z,16.98
2018-08-30T09:33:53.104Z,16.91
2018-08-30T09:34:52.993Z,16.82
2018-08-30T09:35:52.900Z,16.88
2018-08-30T09:36:52.812Z,16.98
2018-08-30T09:37:52.741Z,17.02
2018-08-30T09:38:52.635Z,17.02
2018-08-30T09:39:52.545Z,17.07
2018-08-30T09:40:52.455Z,17.05
2018-08-30T09:41:52.366Z,17.07
2018-08-30T09:42:52.293Z,16.85
2018-08-30T09:43:52.211Z,16.90
2018-08-30T09:44:52.097Z,16.88
2018-08-30T09:45:52.004Z,16.84
2018-08-30T09:46:51.917Z,16.72
2018-08-30T09:47:51.847Z,16.72
2018-08-30T09:48:51.736Z,16.66
2018-08-30T09:49:51.675Z,16.67
2018-08-30T09:50:51.561Z,16.59
2018-08-30T09:51:51.476Z,16.47
2018-08-30T09:52:51.398Z,16.60
2018-08-30T09:53:51.288Z,16.51
2018-08-30T09:54:51.200Z,16.57
2018-08-30T09:55:51.225Z,16.42
2018-08-30T09:56:51.104Z,16.47
2018-08-30T09:57:50.958Z,16.51
2018-08-30T09:58:50.837Z,16.50
2018-08-30T09:59:50.747Z,16.52
2018-08-30T10:00:50.662Z,16.60
2018-08-30T10:01:50.571Z,16.66
2018-08-30T10:02:50.496Z,16.60
2018-08-30T10:03:50.508Z,16.69
2018-08-30T10:04:50.365Z,16.80
2018-08-30T10:05:50.211Z,16.82
2018-08-30T10:06:50.120Z,16.84
2018-08-30T10:07:50.047Z,16.98
2018-08-30T10:08:49.938Z,16.96
2018-08-30T10:09:49.849Z,17.17
2018-08-30T10:10:49.760Z,17.15
2018-08-30T10:11:49.676Z,17.30
2018-08-30T10:12:49.596Z,17.18
2018-08-30T10:13:49.490Z,17.20
2018-08-30T10:14:49.405Z,17.22
2018-08-30T10:15:49.323Z,17.28
2018-08-30T10:16:49.221Z,17.18
2018-08-30T10:17:49.153Z,17.18
2018-08-30T10:18:49.043Z,17.20
2018-08-30T10:19:48.953Z,17.17
2018-08-30T10:20:48.862Z,17.07
2018-08-30T10:21:48.772Z,16.98
2018-08-30T10:22:48.698Z,17.03
2018-08-30T10:23:48.593Z,16.95
2018-08-30T10:24:48.503Z,16.90
2018-08-30T10:25:48.414Z,16.90
2018-08-30T10:26:48.323Z,16.84
2018-08-30T10:27:48.274Z,16.77
2018-08-30T10:28:48.248Z,16.81
2018-08-30T10:29:48.054Z,16.81
2018-08-30T10:30:47.966Z,16.78
2018-08-30T10:31:47.875Z,16.82
2018-08-30T10:32:47.793Z,16.70
2018-08-30T10:33:47.716Z,16.78
2018-08-30T10:34:47.611Z,16.60
2018-08-30T10:35:47.619Z,16.65
2018-08-30T10:36:47.431Z,16.62
2018-08-30T10:37:47.339Z,16.69
2018-08-30T10:38:47.263Z,16.67
2018-08-30T10:39:47.157Z,16.66
2018-08-30T10:40:47.066Z,16.73
2018-08-30T10:41:46.976Z,16.55
2018-08-30T10:42:47.012Z,16.69
2018-08-30T10:43:46.816Z,16.77
2018-08-30T10:44:46.709Z,16.75
2018-08-30T10:45:46.619Z,16.80
2018-08-30T10:46:46.526Z,16.81
2018-08-30T10:47:46.440Z,16.82
2018-08-30T10:48:46.363Z,16.96
2018-08-30T10:49:46.392Z,16.87
2018-08-30T10:50:46.168Z,16.90
2018-08-30T10:51:46.083Z,16.91
2018-08-30T10:52:45.989Z,16.88
2018-08-30T10:53:45.931Z,16.84
2018-08-30T10:54:45.811Z,16.80
2018-08-30T10:55:45.722Z,16.82
2018-08-30T10:56:45.731Z,16.85
2018-08-30T10:57:45.538Z,16.69
2018-08-30T10:58:45.466Z,16.75
2018-08-30T10:59:45.360Z,16.69
2018-08-30T11:00:45.272Z,16.67
2018-08-30T11:01:45.179Z,16.50
2018-08-30T11:02:45.092Z,16.55
2018-08-30T11:03:45.118Z,16.52
2018-08-30T11:04:44.908Z,16.55
2018-08-30T11:05:44.821Z,16.54
2018-08-30T11:06:44.730Z,16.48
2018-08-30T11:07:44.640Z,16.40
2018-08-30T11:08:44.564Z,16.25
2018-08-30T11:09:44.462Z,16.17
2018-08-30T11:10:44.469Z,16.22
2018-08-30T11:11:44.281Z,16.16
2018-08-30T11:12:44.230Z,16.22
2018-08-30T11:13:44.114Z,16.13
2018-08-30T11:14:44.008Z,16.22
2018-08-30T11:15:43.918Z,16.10
2018-08-30T11:16:43.835Z,16.06
2018-08-30T11:17:43.834Z,15.98
2018-08-30T11:18:43.664Z,15.93
2018-08-30T11:19:43.558Z,15.96
2018-08-30T11:20:43.517Z,15.92
2018-08-30T11:21:43.393Z,15.86
2018-08-30T11:22:43.285Z,15.85
2018-08-30T11:23:43.213Z,15.77
2018-08-30T11:24:43.204Z,15.77
2018-08-30T11:25:43.016Z,15.80
2018-08-30T11:26:42.923Z,15.67
2018-08-30T11:27:42.843Z,15.68
2018-08-30T11:28:42.765Z,15.73
2018-08-30T11:29:42.651Z,15.70
2018-08-30T11:30:42.560Z,15.68
2018-08-30T11:31:42.567Z,15.70
2018-08-30T11:32:42.379Z,15.68
2018-08-30T11:33:42.303Z,15.66
2018-08-30T11:34:42.199Z,15.67
2018-08-30T11:35:42.105Z,15.59
2018-08-30T11:36:42.018Z,15.60
2018-08-30T11:37:41.966Z,15.58
2018-08-30T11:38:41.850Z,15.60
2018-08-30T11:39:41.744Z,15.60
2018-08-30T11:40:41.654Z,15.60
2018-08-30T11:41:41.656Z,15.59
2018-08-30T11:42:41.470Z,15.59
2018-08-30T11:43:41.392Z,15.53
2018-08-30T11:44:41.287Z,15.48
2018-08-30T11:45:41.194Z,15.48
2018-08-30T11:46:41.102Z,15.49
2018-08-30T11:47:41.013Z,15.44
2018-08-30T11:48:40.939Z,15.51
2018-08-30T11:49:40.829Z,15.49
2018-08-30T11:50:40.735Z,15.49
2018-08-30T11:51:40.649Z,15.44
2018-08-30T11:52:40.623Z,15.38
2018-08-30T11:53:40.482Z,15.35
2018-08-30T11:54:40.376Z,15.34
2018-08-30T11:55:40.282Z,15.40
2018-08-30T11:56:40.195Z,15.34
2018-08-30T11:57:40.098Z,15.30
2018-08-30T11:58:40.025Z,15.20
2018-08-30T11:59:39.918Z,15.28
2018-08-30T12:00:39.828Z,15.37
2018-08-30T12:01:39.731Z,15.25
2018-08-30T12:02:39.641Z,15.31
2018-08-30T12:03:39.570Z,15.27
2018-08-30T12:04:39.459Z,15.35
2018-08-30T12:05:39.368Z,15.35
2018-08-30T12:06:39.278Z,15.33
2018-08-30T12:07:39.183Z,15.33
2018-08-30T12:08:39.109Z,15.34
2018-08-30T12:09:39.000Z,15.38
2018-08-30T12:10:38.943Z,15.35
2018-08-30T12:11:38.873Z,15.37
2018-08-30T12:12:38.731Z,15.44
2018-08-30T12:13:38.652Z,15.46
2018-08-30T12:14:38.546Z,15.38
2018-08-30T12:15:38.453Z,15.43
2018-08-30T12:16:38.362Z,15.41
2018-08-30T12:17:38.271Z,15.40
2018-08-30T12:18:38.209Z,15.49
2018-08-30T12:19:38.086Z,15.52
2018-08-30T12:20:38.074Z,15.37
2018-08-30T12:21:37.907Z,15.41
2018-08-30T12:22:37.812Z,15.34
2018-08-30T12:23:37.724Z,15.34
2018-08-30T12:24:37.648Z,15.40
2018-08-30T12:25:37.538Z,15.44
2018-08-30T12:26:37.450Z,15.44
2018-08-30T12:27:37.374Z,15.34
2018-08-30T12:28:37.322Z,15.44
2018-08-30T12:29:37.204Z,15.44
2018-08-30T12:30:37.092Z,15.40
2018-08-30T12:31:37.053Z,15.51
2018-08-30T12:32:36.919Z,15.38
2018-08-30T12:33:36.818Z,15.28
2018-08-30T12:34:36.786Z,15.34
2018-08-30T12:35:36.681Z,15.33
2018-08-30T12:36:36.542Z,15.33
2018-08-30T12:37:36.449Z,15.19
2018-08-30T12:38:36.404Z,15.23
2018-08-30T12:39:36.352Z,15.23
2018-08-30T12:40:36.169Z,15.23
2018-08-30T12:41:36.077Z,15.25
2018-08-30T12:42:36.050Z,15.27
2018-08-30T12:43:36.055Z,15.22
2018-08-30T12:44:35.842Z,15.30
2018-08-30T12:45:35.719Z,15.30
2018-08-30T12:46:35.645Z,15.38
2018-08-30T12:47:35.560Z,15.33
2018-08-30T12:48:35.443Z,15.37
2018-08-30T12:49:35.367Z,15.22
2018-08-30T12:50:35.378Z,15.34
2018-08-30T12:51:35.429Z,15.18